Hauptseite
METAR-TAF:

METAR-TAF

Flughäfen :

Fliegerhorst Wunstorf

Wunstorf, Deutschland

Breite: 52-27N, Länge: 009-26E, Höhe: 57 m

Beobachtung

Neuester Wetterbericht von vor 40 Minuten, um 21:20 UTC
Wind 8 kt aus Ost/Nordost
Temperatur 22°C
Luftfeuchtigkeit 46%
Luftdruck 1012 hPa
Sichtweite 10 km oder mehr
Aufgelockert bewölkt in der Höhe von 25000 ft

METAR: ETNW 202120Z 07008KT 9999 SCT250 22/10 Q1012 BLU+

Zeit: 00:00 (22:00 UTC)

Prognose

Neuester Wetterbericht von vor 5 Stunden und 44 Minuten, um 16:16 UTC
Gültige Prognose vom 20 um 17 UTC bis 21 um 17 UTC
Wind 6 kt aus Ost
Sichtweite 10 km oder mehr
Aufgelockert bewölkt in der Höhe von 7000 ft
Aufgelockert bewölkt in der Höhe von 25000 ft

TAF: ETNW 201616Z 2017/2117 09006KT 9999 NSW SCT070 SCT250 BY ETGL

Wetterbeobachtungen und Prognosen von mehr als 4000 Flughäfen (METAR und TAF Bericht).

Die verfügbaren Stationen werden durch gelbe und rote Markierungen auf der Karte dargestellt.

Führen Sie die Maus auf sie, um den Namen der Station zu sehen.

Darauf klicken, um die Beobachtung von Wetterbeobachtungen und Prognosen zu sehen.

Um die Karte zu ändern : klicken Sie auf den grünen Tasten mit einem schwarzen Kreuz Zum Vergrößern, auf den grünen Button mit einem Gedankenstrich zu verkleinern, oder auf die grünen Pfeile für benachbarte Karten.


METAR-TAF: